Time;durP1;ratioP1;P1;durP2;ratioP2;P2;SDS_P1;SDS_P2;PMS_P1;PMS_P2;Temp;Humidity;BMP_temperature;BMP_pressure;BME280_temperature;BME280_humidity;BME280_pressure;Samples;Min_cycle;Max_cycle;Signal;HPM_P1;HPM_P2
2023/03/15 00:01:35;;;;;;;7.15;1.90;;;12.60;56.20;;;;;;6181950;28;20045;-73
2023/03/15 00:04:36;;;;;;;5.72;1.90;;;12.50;56.10;;;;;;6198310;28;20058;-75
2023/03/15 00:07:38;;;;;;;11.52;2.30;;;12.50;56.30;;;;;;6197982;28;20113;-73
2023/03/15 00:10:40;;;;;;;5.75;1.80;;;12.50;56.50;;;;;;6180077;28;20033;-73
2023/03/15 00:13:42;;;;;;;9.30;2.35;;;12.50;56.50;;;;;;6197525;28;20050;-72
2023/03/15 00:16:43;;;;;;;3.50;1.85;;;12.40;56.70;;;;;;6180014;28;20431;-73
2023/03/15 00:19:46;;;;;;;9.20;1.77;;;12.40;56.80;;;;;;6179739;28;20576;-76
2023/03/15 00:22:47;;;;;;;5.82;2.22;;;12.40;56.90;;;;;;6179923;28;20030;-74
2023/03/15 00:25:50;;;;;;;12.60;2.90;;;12.40;57.00;;;;;;6197237;28;20050;-73
2023/03/15 00:28:51;;;;;;;8.90;1.92;;;12.40;57.10;;;;;;6178898;28;20048;-73
2023/03/15 00:31:52;;;;;;;4.40;1.58;;;12.40;57.10;;;;;;6179031;28;20125;-74
2023/03/15 00:34:55;;;;;;;7.05;1.80;;;12.50;57.00;;;;;;6179268;28;20030;-74
2023/03/15 00:37:56;;;;;;;12.00;2.63;;;12.50;56.80;;;;;;6178938;28;20451;-75
2023/03/15 00:40:57;;;;;;;5.53;1.45;;;12.50;56.60;;;;;;6163101;28;20426;-73
2023/03/15 00:43:58;;;;;;;12.25;2.20;;;12.60;56.70;;;;;;6178832;28;20085;-74
2023/03/15 00:46:59;;;;;;;4.45;2.10;;;12.60;56.60;;;;;;6178834;28;20027;-74
2023/03/15 00:50:00;;;;;;;8.13;3.00;;;12.50;56.50;;;;;;6161371;28;20042;-73
2023/03/15 00:53:01;;;;;;;14.20;2.10;;;12.50;56.70;;;;;;6172445;28;20181;-75
2023/03/15 00:56:10;;;;;;;3.33;1.55;;;12.60;56.70;;;;;;6172104;28;20444;-73
2023/03/15 00:59:11;;;;;;;7.70;2.40;;;12.60;56.70;;;;;;6154286;28;20046;-74
2023/03/15 01:02:12;;;;;;;4.97;2.22;;;12.60;56.80;;;;;;6154964;28;20035;-74
2023/03/15 01:05:14;;;;;;;11.27;2.38;;;12.60;57.10;;;;;;6194565;28;20033;-73
2023/03/15 01:08:17;;;;;;;3.72;2.33;;;12.60;57.20;;;;;;6162189;28;20054;-75
2023/03/15 01:11:23;;;;;;;6.15;2.22;;;12.60;57.40;;;;;;6178259;28;20068;-74
2023/03/15 01:14:24;;;;;;;6.13;2.20;;;12.60;57.50;;;;;;6178182;28;20026;-72
2023/03/15 01:17:26;;;;;;;6.78;2.33;;;12.60;57.50;;;;;;6177319;28;20057;-74
2023/03/15 01:20:27;;;;;;;9.73;1.90;;;12.60;57.40;;;;;;6178340;28;20051;-74
2023/03/15 01:23:28;;;;;;;8.10;2.00;;;12.60;57.40;;;;;;6196351;28;20462;-73
2023/03/15 01:26:30;;;;;;;9.10;2.60;;;12.60;57.50;;;;;;6196243;28;20030;-73
2023/03/15 01:29:31;;;;;;;8.05;1.92;;;12.60;57.50;;;;;;6177995;28;20041;-72
2023/03/15 01:32:32;;;;;;;6.90;1.90;;;12.60;57.70;;;;;;6178057;28;20034;-73
2023/03/15 01:35:33;;;;;;;4.07;1.60;;;12.50;57.60;;;;;;6195585;28;20395;-74
2023/03/15 01:38:34;;;;;;;7.97;2.15;;;12.50;57.60;;;;;;6177426;28;20034;-74
2023/03/15 01:41:36;;;;;;;4.00;2.03;;;12.50;57.70;;;;;;6177845;28;20026;-74
2023/03/15 01:45:00;;;;;;;5.75;2.00;;;12.40;57.70;;;;;;6173568;28;20027;-73
2023/03/15 01:48:01;;;;;;;7.00;2.42;;;12.40;57.80;;;;;;6153547;28;20027;-73
2023/03/15 01:51:11;;;;;;;7.93;1.88;;;12.40;57.80;;;;;;6154071;28;20031;-73
2023/03/15 01:58:05;;;;;;;3.92;1.40;;;12.40;57.10;;;;;;6143476;29;20042;-73
2023/03/15 02:01:09;;;;;;;4.22;1.63;;;12.40;56.70;;;;;;6135965;29;20032;-73
2023/03/15 02:04:27;;;;;;;6.03;1.58;;;12.40;56.30;;;;;;6103763;29;20134;-73
2023/03/15 02:07:48;;;;;;;3.63;1.48;;;12.40;55.40;;;;;;6104185;29;20118;-72
2023/03/15 02:11:01;;;;;;;5.75;1.30;;;12.50;55.00;;;;;;6103860;29;20066;-73
2023/03/15 02:15:07;;;;;;;7.88;1.95;;;12.50;54.40;;;;;;6103698;29;20051;-73
2023/03/15 02:18:34;;;;;;;5.72;1.60;;;12.50;54.40;;;;;;6124590;29;20031;-74
2023/03/15 02:22:28;;;;;;;5.90;2.05;;;12.50;55.10;;;;;;6111659;29;20047;-76
2023/03/15 02:38:39;;;;;;;6.80;1.73;;;12.40;55.80;;;;;;6124279;29;20085;-73
2023/03/15 02:46:02;;;;;;;7.93;1.92;;;12.20;56.30;;;;;;6150196;29;20020;-73
2023/03/15 02:49:06;;;;;;;7.38;1.58;;;12.10;56.60;;;;;;6111688;29;20106;-74
2023/03/15 02:52:22;;;;;;;4.80;1.70;;;12.10;56.80;;;;;;6108833;29;20127;-74
2023/03/15 02:55:27;;;;;;;4.00;1.50;;;12.00;56.90;;;;;;6108491;29;20037;-76
2023/03/15 02:58:27;;;;;;;4.95;1.15;;;12.00;57.10;;;;;;6108012;29;20477;-73
2023/03/15 03:01:30;;;;;;;2.95;1.30;;;12.00;57.10;;;;;;6150624;28;20030;-74
2023/03/15 03:04:31;;;;;;;4.25;0.88;;;11.90;57.00;;;;;;6182004;28;20038;-73
2023/03/15 03:07:32;;;;;;;2.40;1.30;;;11.80;56.90;;;;;;6181522;28;20023;-73
2023/03/15 03:10:38;;;;;;;1.67;1.00;;;11.80;56.90;;;;;;6179862;28;20097;-74
2023/03/15 03:13:40;;;;;;;2.88;1.08;;;11.90;56.90;;;;;;6157420;28;20041;-73
2023/03/15 03:16:42;;;;;;;3.40;0.68;;;11.90;56.80;;;;;;6157256;28;20126;-74
2023/03/15 03:19:43;;;;;;;2.63;1.00;;;12.00;56.60;;;;;;6166223;28;20123;-72
2023/03/15 03:22:45;;;;;;;2.88;1.05;;;12.00;56.60;;;;;;6157049;28;20035;-73
2023/03/15 03:25:46;;;;;;;6.22;1.25;;;12.10;56.60;;;;;;6156903;28;20039;-74
2023/03/15 03:28:48;;;;;;;3.22;1.20;;;12.10;56.20;;;;;;6175732;28;20042;-74
2023/03/15 03:31:50;;;;;;;6.10;0.98;;;12.20;56.00;;;;;;6164764;28;20034;-73
2023/03/15 03:34:52;;;;;;;6.07;0.70;;;12.20;55.70;;;;;;6180415;28;20104;-74
2023/03/15 03:37:56;;;;;;;2.83;0.77;;;12.20;55.60;;;;;;6180125;28;20029;-74
2023/03/15 03:41:03;;;;;;;2.70;0.73;;;12.30;55.50;;;;;;6180211;28;20399;-73
2023/03/15 03:44:07;;;;;;;2.83;0.38;;;12.40;55.10;;;;;;6164867;28;20034;-74
2023/03/15 03:47:09;;;;;;;8.27;1.48;;;12.40;55.00;;;;;;6180279;28;20029;-73
2023/03/15 03:50:11;;;;;;;2.53;0.68;;;12.40;54.90;;;;;;6164072;28;20034;-74
2023/03/15 03:53:12;;;;;;;4.10;1.10;;;12.40;54.80;;;;;;6151070;28;20069;-74
2023/03/15 03:56:13;;;;;;;8.35;0.98;;;12.40;54.90;;;;;;6156248;28;20031;-73
2023/03/15 03:59:15;;;;;;;6.88;1.67;;;12.50;54.90;;;;;;6156141;28;20391;-74
2023/03/15 04:02:32;;;;;;;2.88;1.15;;;12.50;55.10;;;;;;6142717;28;20035;-74
2023/03/15 04:05:37;;;;;;;2.53;1.23;;;12.40;55.20;;;;;;6156338;28;20133;-73
2023/03/15 04:08:40;;;;;;;4.18;1.05;;;12.40;55.40;;;;;;6170949;28;20026;-74
2023/03/15 04:11:43;;;;;;;3.67;1.35;;;12.40;55.50;;;;;;6179980;28;20038;-74
2023/03/15 04:14:45;;;;;;;2.17;0.95;;;12.30;55.60;;;;;;6179890;28;20030;-75
2023/03/15 04:17:47;;;;;;;3.97;1.45;;;12.30;55.70;;;;;;6180114;28;20122;-73
2023/03/15 04:20:48;;;;;;;3.38;1.13;;;12.30;55.80;;;;;;6180235;28;20330;-73
2023/03/15 04:23:52;;;;;;;3.90;1.08;;;12.20;55.90;;;;;;6180067;28;20431;-75
2023/03/15 04:27:23;;;;;;;4.47;1.00;;;12.20;56.00;;;;;;6098863;29;20075;-73
2023/03/15 04:30:41;;;;;;;5.88;1.10;;;12.10;56.10;;;;;;6098681;29;20036;-73
2023/03/15 04:34:15;;;;;;;4.15;1.20;;;12.00;56.30;;;;;;6087153;29;20058;-75
2023/03/15 04:37:38;;;;;;;3.58;1.30;;;11.90;56.50;;;;;;6062241;29;20119;-74
2023/03/15 04:40:54;;;;;;;1.30;0.85;;;11.80;56.70;;;;;;6073091;29;20067;-74
2023/03/15 04:44:25;;;;;;;6.70;0.90;;;11.70;56.80;;;;;;6076585;29;20097;-75
2023/03/15 04:47:38;;;;;;;4.15;1.77;;;11.60;56.40;;;;;;6066604;29;20092;-73
2023/03/15 04:50:57;;;;;;;3.17;1.05;;;11.50;56.20;;;;;;6080968;29;20509;-73
2023/03/15 04:54:27;;;;;;;2.33;1.13;;;11.40;56.20;;;;;;6076008;29;20057;-73
2023/03/15 04:57:28;;;;;;;4.95;1.38;;;11.40;56.30;;;;;;6075537;29;20120;-74
2023/03/15 05:00:46;;;;;;;4.93;1.55;;;11.40;56.50;;;;;;6074607;29;20064;-74
2023/03/15 05:04:00;;;;;;;4.72;1.13;;;11.40;57.40;;;;;;6113494;29;20042;-74
2023/03/15 05:07:24;;;;;;;4.00;1.55;;;11.30;56.90;;;;;;6120741;29;20040;-73
2023/03/15 05:10:39;;;;;;;6.65;1.63;;;11.30;57.10;;;;;;6070981;29;20040;-74
2023/03/15 05:13:58;;;;;;;6.55;1.05;;;11.20;57.20;;;;;;6099814;29;20032;-73
2023/03/15 05:17:22;;;;;;;2.78;1.23;;;11.20;57.20;;;;;;6097228;29;20044;-74
2023/03/15 05:20:46;;;;;;;5.32;1.00;;;11.20;57.20;;;;;;6073913;29;20049;-73
2023/03/15 05:24:10;;;;;;;2.50;1.00;;;11.10;57.00;;;;;;6074970;29;20072;-72
2023/03/15 05:27:31;;;;;;;18.58;0.93;;;11.00;56.20;;;;;;6078925;29;20040;-75
2023/03/15 05:30:52;;;;;;;5.88;0.70;;;10.80;55.80;;;;;;6114683;29;20047;-74
2023/03/15 05:34:03;;;;;;;0.82;0.35;;;10.80;55.70;;;;;;6106699;29;20040;-73
2023/03/15 05:37:23;;;;;;;3.17;0.82;;;10.80;55.60;;;;;;6098969;29;20040;-74
2023/03/15 05:40:58;;;;;;;0.30;0.28;;;10.70;55.20;;;;;;6097324;29;20480;-74
2023/03/15 05:44:22;;;;;;;4.72;1.10;;;10.70;55.00;;;;;;6099103;29;20055;-73
2023/03/15 05:47:44;;;;;;;3.40;0.63;;;10.70;55.00;;;;;;6119911;29;20126;-73
2023/03/15 05:51:03;;;;;;;7.30;1.42;;;10.50;54.80;;;;;;6120200;29;20120;-74
2023/03/15 05:54:33;;;;;;;4.70;0.82;;;10.90;54.70;;;;;;6128151;28;20055;-75
2023/03/15 05:57:59;;;;;;;5.00;1.17;;;10.60;54.50;;;;;;6119473;29;20126;-74
2023/03/15 06:01:12;;;;;;;3.20;1.17;;;10.60;54.50;;;;;;6119958;29;20047;-73
2023/03/15 06:04:36;;;;;;;2.58;1.02;;;10.60;54.60;;;;;;6103232;29;20043;-74
2023/03/15 06:07:37;;;;;;;2.60;0.98;;;10.70;55.00;;;;;;6114903;29;20386;-74
2023/03/15 06:10:39;;;;;;;7.35;1.48;;;10.60;55.20;;;;;;6143173;29;20043;-74
2023/03/15 06:13:42;;;;;;;11.80;1.85;;;10.70;55.60;;;;;;6112012;29;20059;-74
2023/03/15 06:16:51;;;;;;;5.18;1.48;;;10.80;56.00;;;;;;6144064;29;20492;-72
2023/03/15 06:19:53;;;;;;;17.33;1.35;;;10.70;56.00;;;;;;6109482;29;20071;-73
2023/03/15 06:22:54;;;;;;;6.05;1.30;;;10.70;56.00;;;;;;6120386;29;20090;-73
2023/03/15 06:26:14;;;;;;;3.72;0.95;;;10.60;55.90;;;;;;6156161;28;20511;-74
2023/03/15 06:29:16;;;;;;;1.60;1.10;;;10.60;55.80;;;;;;6159950;28;20096;-75
2023/03/15 06:32:20;;;;;;;2.60;0.60;;;10.60;55.80;;;;;;6177135;28;20042;-75
2023/03/15 06:35:21;;;;;;;10.02;1.63;;;10.60;55.50;;;;;;6177314;28;20531;-74
2023/03/15 06:38:23;;;;;;;2.10;0.80;;;10.50;55.10;;;;;;6176948;28;20037;-73
2023/03/15 06:41:25;;;;;;;2.15;0.82;;;10.50;54.90;;;;;;6177196;28;20018;-74
2023/03/15 06:44:31;;;;;;;11.17;1.60;;;10.50;54.50;;;;;;6177577;28;20484;-73
2023/03/15 06:47:37;;;;;;;10.13;1.30;;;10.50;54.40;;;;;;6177636;28;20026;-73
2023/03/15 06:50:39;;;;;;;7.13;1.52;;;10.60;54.40;;;;;;6162171;28;20030;-75
2023/03/15 06:53:40;;;;;;;3.35;1.50;;;10.60;55.00;;;;;;6177601;28;20054;-73
2023/03/15 06:56:42;;;;;;;2.35;1.30;;;10.60;55.70;;;;;;6177773;28;20088;-73
2023/03/15 06:59:43;;;;;;;4.45;1.67;;;10.60;56.20;;;;;;6195011;28;20046;-75
2023/03/15 07:02:44;;;;;;;3.65;1.48;;;10.60;56.30;;;;;;6194817;28;20423;-76
2023/03/15 07:05:45;;;;;;;2.70;1.38;;;10.70;56.50;;;;;;6195057;28;20436;-73
2023/03/15 07:08:46;;;;;;;4.35;1.70;;;10.70;56.50;;;;;;6177304;28;20038;-73
2023/03/15 07:11:47;;;;;;;12.18;2.45;;;10.70;56.50;;;;;;6195287;28;20038;-74
2023/03/15 07:14:48;;;;;;;7.15;1.77;;;10.70;56.60;;;;;;6177733;28;20217;-74
2023/03/15 07:17:49;;;;;;;11.05;2.38;;;10.80;56.60;;;;;;6183476;28;20669;-73
2023/03/15 07:21:01;;;;;;;6.90;2.08;;;10.70;56.40;;;;;;6166631;28;20042;-74
2023/03/15 07:24:03;;;;;;;5.78;2.00;;;10.70;56.50;;;;;;6181708;28;20045;-75
2023/03/15 07:27:04;;;;;;;2.70;1.73;;;10.70;56.60;;;;;;6198554;28;20113;-73
2023/03/15 07:30:07;;;;;;;6.00;2.00;;;10.70;56.70;;;;;;6198872;28;20037;-73
2023/03/15 07:33:09;;;;;;;4.43;1.75;;;10.70;56.70;;;;;;6181249;28;20050;-74
2023/03/15 07:36:10;;;;;;;4.40;1.63;;;10.70;56.80;;;;;;6180671;28;20084;-76
2023/03/15 07:39:12;;;;;;;8.65;2.40;;;10.80;56.90;;;;;;6177146;28;20078;-73
2023/03/15 07:42:13;;;;;;;5.00;2.10;;;10.90;56.80;;;;;;6174655;28;20027;-73
2023/03/15 07:45:16;;;;;;;13.20;1.80;;;11.00;56.70;;;;;;6172509;28;20045;-74
2023/03/15 07:48:17;;;;;;;5.43;1.92;;;11.00;56.30;;;;;;6156769;28;20033;-74
2023/03/15 07:51:18;;;;;;;3.20;1.45;;;11.10;56.10;;;;;;6172372;28;20027;-76
2023/03/15 07:54:19;;;;;;;4.13;1.60;;;11.10;55.90;;;;;;6159285;28;20042;-72
2023/03/15 07:57:21;;;;;;;6.95;2.33;;;11.30;55.70;;;;;;6173098;28;20026;-74
2023/03/15 08:00:22;;;;;;;7.93;1.48;;;11.40;55.30;;;;;;6173833;28;20030;-74
2023/03/15 08:03:25;;;;;;;1.00;0.70;;;11.50;54.80;;;;;;6173416;28;20453;-73
2023/03/15 08:06:26;;;;;;;2.63;1.15;;;11.60;54.00;;;;;;6173667;28;20037;-74
2023/03/15 08:09:27;;;;;;;3.08;0.90;;;11.80;53.70;;;;;;6156390;28;20662;-74
2023/03/15 08:12:29;;;;;;;3.60;1.15;;;11.90;53.10;;;;;;6157689;28;20047;-74
2023/03/15 08:15:30;;;;;;;4.03;1.27;;;12.00;52.30;;;;;;6180635;28;20135;-74
2023/03/15 08:18:31;;;;;;;4.78;1.20;;;12.10;52.10;;;;;;6188411;28;20019;-73
2023/03/15 08:21:32;;;;;;;7.25;0.98;;;12.20;51.80;;;;;;6184660;28;20396;-73
2023/03/15 08:24:38;;;;;;;1.95;0.60;;;12.30;51.40;;;;;;6166223;28;20022;-75
2023/03/15 08:27:40;;;;;;;8.05;1.25;;;12.50;50.20;;;;;;6179527;28;20041;-74
2023/03/15 08:30:41;;;;;;;5.00;0.80;;;12.60;49.00;;;;;;6197647;28;20197;-74
2023/03/15 08:33:43;;;;;;;4.45;0.95;;;12.60;48.80;;;;;;6186319;28;20018;-73
2023/03/15 08:36:46;;;;;;;3.55;0.93;;;12.70;48.90;;;;;;6204122;28;20080;-74
2023/03/15 08:39:56;;;;;;;16.85;1.10;;;12.90;49.10;;;;;;6203340;28;20219;-74
2023/03/15 08:43:13;;;;;;;3.10;0.90;;;13.00;49.00;;;;;;6204556;28;20034;-74
2023/03/15 08:46:20;;;;;;;8.82;2.97;;;13.10;48.50;;;;;;6203460;28;20026;-76
2023/03/15 08:53:44;;;;;;;3.15;1.55;;;13.40;48.70;;;;;;6195775;28;20039;-73
2023/03/15 08:56:45;;;;;;;4.20;1.33;;;13.70;48.60;;;;;;6178160;28;20615;-73
2023/03/15 08:59:46;;;;;;;2.40;1.17;;;13.70;48.10;;;;;;6178194;28;20470;-72
2023/03/15 09:02:50;;;;;;;4.13;1.30;;;13.80;48.00;;;;;;6196288;28;20034;-75
2023/03/15 09:05:56;;;;;;;11.57;2.03;;;14.00;48.00;;;;;;6178128;28;20045;-73
2023/03/15 09:08:57;;;;;;;4.63;1.30;;;14.00;48.00;;;;;;6195554;28;20050;-73
2023/03/15 09:11:59;;;;;;;1.75;0.77;;;14.10;48.20;;;;;;6195847;28;20339;-74
2023/03/15 09:15:00;;;;;;;4.47;1.20;;;14.10;47.70;;;;;;6178106;28;20026;-73
2023/03/15 09:18:01;;;;;;;2.05;0.95;;;14.10;47.40;;;;;;6195372;28;20057;-74
2023/03/15 09:21:07;;;;;;;4.55;0.80;;;14.10;47.30;;;;;;6178306;28;20406;-73
2023/03/15 09:24:13;;;;;;;1.85;0.95;;;14.00;47.00;;;;;;6161913;28;20047;-76
2023/03/15 09:35:59;;;;;;;3.80;0.93;;;14.10;46.20;;;;;;6171862;28;20039;-73
2023/03/15 09:39:00;;;;;;;3.70;1.30;;;14.10;46.30;;;;;;6171140;28;20110;-76
2023/03/15 09:42:07;;;;;;;4.32;0.73;;;14.10;46.20;;;;;;6171804;28;20034;-74
2023/03/15 09:45:34;;;;;;;3.03;0.80;;;14.20;45.60;;;;;;6154428;28;20117;-73
2023/03/15 09:48:56;;;;;;;3.78;1.00;;;14.20;45.20;;;;;;6154081;28;20058;-75
2023/03/15 09:52:04;;;;;;;0.88;0.60;;;14.10;44.90;;;;;;6171214;28;20373;-72
2023/03/15 10:08:17;;;;;;;3.00;0.63;;;14.20;44.20;;;;;;6188998;28;20038;-75
2023/03/15 11:00:51;;;;;;;3.35;0.93;;;15.80;42.30;;;;;;6188231;28;20041;-74
2023/03/15 11:08:22;;;;;;;;;;;16.10;41.10;;;;;;6200725;28;20022;-73
2023/03/15 11:12:02;;;;;;;3.15;1.02;;;16.10;41.20;;;;;;6200280;28;20067;-74
2023/03/15 11:15:12;;;;;;;4.70;1.17;;;16.30;40.80;;;;;;6200804;28;20041;-76
2023/03/15 11:18:24;;;;;;;2.08;0.75;;;16.40;40.50;;;;;;6180604;28;20124;-74
2023/03/15 11:21:32;;;;;;;2.15;0.95;;;16.50;40.50;;;;;;6181681;28;20097;-75
2023/03/15 11:24:33;;;;;;;3.28;0.75;;;16.70;40.00;;;;;;6181900;28;20035;-74
2023/03/15 11:27:34;;;;;;;3.22;0.77;;;16.70;39.60;;;;;;6199057;28;20431;-74
2023/03/15 11:30:38;;;;;;;5.60;1.20;;;16.60;39.50;;;;;;6180619;28;20495;-75
2023/03/15 11:33:56;;;;;;;2.38;1.13;;;16.70;39.80;;;;;;6180849;28;20041;-74
2023/03/15 11:37:03;;;;;;;2.80;1.08;;;16.80;39.70;;;;;;6178964;28;20034;-73
2023/03/15 11:40:21;;;;;;;9.50;0.75;;;17.20;39.60;;;;;;6174050;28;20101;-74
2023/03/15 11:43:30;;;;;;;6.55;1.02;;;17.70;38.60;;;;;;6180058;28;20413;-73
2023/03/15 11:46:33;;;;;;;6.38;1.20;;;18.10;37.80;;;;;;6180894;28;20120;-74
2023/03/15 11:49:55;;;;;;;4.90;1.30;;;18.50;37.20;;;;;;6198046;28;20030;-73
2023/03/15 11:53:01;;;;;;;3.13;0.93;;;18.80;36.00;;;;;;6197773;28;20440;-74
2023/03/15 11:56:19;;;;;;;5.45;1.58;;;19.00;35.60;;;;;;6197882;28;20496;-74
2023/03/15 11:59:32;;;;;;;3.33;0.87;;;19.30;35.00;;;;;;6179993;28;20038;-73
2023/03/15 12:02:46;;;;;;;2.85;0.90;;;19.40;34.60;;;;;;6197209;28;20167;-75
2023/03/15 12:05:49;;;;;;;1.80;1.00;;;19.40;34.80;;;;;;6180118;28;20085;-73
2023/03/15 12:08:53;;;;;;;3.67;1.25;;;19.40;34.00;;;;;;6179137;28;20056;-74
2023/03/15 12:12:00;;;;;;;2.78;0.82;;;19.70;33.70;;;;;;6179570;28;20486;-74
2023/03/15 12:15:05;;;;;;;2.15;0.88;;;20.00;32.70;;;;;;6197038;28;20030;-74
2023/03/15 12:18:15;;;;;;;2.00;0.70;;;20.30;32.60;;;;;;6163035;28;20107;-75
2023/03/15 12:21:30;;;;;;;5.30;0.85;;;20.90;31.80;;;;;;6197250;28;20490;-74
2023/03/15 12:24:37;;;;;;;9.45;0.88;;;21.30;30.70;;;;;;6197382;28;20073;-75
2023/03/15 12:27:46;;;;;;;3.58;0.95;;;21.90;30.00;;;;;;6179579;28;20034;-75
2023/03/15 12:30:55;;;;;;;1.48;0.60;;;22.40;29.70;;;;;;6197494;28;20058;-74
2023/03/15 12:33:57;;;;;;;1.58;0.63;;;22.90;29.30;;;;;;6171921;28;20035;-74
2023/03/15 12:37:08;;;;;;;3.03;1.08;;;23.50;28.70;;;;;;6139597;28;20118;-74
2023/03/15 12:40:15;;;;;;;1.52;0.88;;;24.10;28.00;;;;;;6173816;28;20097;-75
2023/03/15 12:43:36;;;;;;;3.20;0.90;;;24.70;27.30;;;;;;6196531;28;20105;-74
2023/03/15 12:46:37;;;;;;;2.80;0.75;;;25.10;26.50;;;;;;6163369;28;20038;-74
2023/03/15 12:49:41;;;;;;;3.25;1.50;;;25.30;26.70;;;;;;6178830;28;20443;-73
2023/03/15 12:52:46;;;;;;;10.38;1.15;;;25.60;25.80;;;;;;6196683;28;20038;-74
2023/03/15 12:55:48;;;;;;;1.52;0.88;;;25.70;25.00;;;;;;6196270;28;20403;-75
2023/03/15 12:58:54;;;;;;;3.83;0.93;;;25.80;25.20;;;;;;6178047;28;20034;-72
2023/03/15 13:01:57;;;;;;;12.65;0.90;;;25.90;24.70;;;;;;6178113;28;20026;-75
2023/03/15 13:05:30;;;;;;;1.17;0.60;;;26.20;24.60;;;;;;6162781;28;20037;-76
2023/03/15 13:08:52;;;;;;;3.95;1.15;;;26.00;24.30;;;;;;6178549;28;20030;-74
2023/03/15 13:12:18;;;;;;;2.55;0.60;;;25.20;24.80;;;;;;6195968;28;20022;-74
2023/03/15 13:15:39;;;;;;;2.35;0.50;;;24.20;25.50;;;;;;6177762;28;20095;-74
2023/03/15 13:19:35;;;;;;;5.97;0.60;;;23.20;26.10;;;;;;6153485;28;20023;-75
2023/03/15 13:23:02;;;;;;;0.90;0.38;;;22.40;26.90;;;;;;6138361;28;20031;-71
2023/03/15 13:26:18;;;;;;;1.33;0.60;;;21.60;27.10;;;;;;6154704;28;20038;-74
2023/03/15 13:29:32;;;;;;;3.25;0.63;;;21.00;27.60;;;;;;6174157;28;20038;-75
2023/03/15 13:32:37;;;;;;;1.60;0.60;;;20.40;28.10;;;;;;6197441;28;20494;-75
2023/03/15 14:06:01;;;;;;;1.08;0.55;;;18.10;30.20;;;;;;6171338;28;20042;-75
2023/03/15 14:22:16;;;;;;;2.83;0.73;;;17.50;30.10;;;;;;6177577;28;20066;-73
2023/03/15 14:25:21;;;;;;;;;;;17.50;30.10;;;;;;6171789;28;20110;-74
2023/03/15 14:28:23;;;;;;;1.00;0.40;;;17.50;30.10;;;;;;6177596;28;20302;-76
2023/03/15 14:31:31;;;;;;;3.72;0.50;;;17.40;29.90;;;;;;6195537;28;20045;-73
2023/03/15 14:34:34;;;;;;;;;;;17.40;29.60;;;;;;6177889;28;20062;-75
2023/03/15 14:37:40;;;;;;;2.42;0.50;;;17.40;29.60;;;;;;6194729;28;19914;-72
2023/03/15 14:40:42;;;;;;;3.08;0.25;;;17.40;29.70;;;;;;6174616;28;20045;-75
2023/03/15 14:43:43;;;;;;;0.93;0.60;;;17.40;29.50;;;;;;6153670;28;20038;-72
2023/03/15 14:46:44;;;;;;;1.23;0.63;;;17.40;29.10;;;;;;6169459;28;20035;-74
2023/03/15 14:49:45;;;;;;;2.85;0.47;;;17.30;28.70;;;;;;6168336;28;20093;-74
2023/03/15 14:52:48;;;;;;;1.85;0.45;;;17.30;28.50;;;;;;6176816;28;20062;-73
2023/03/15 14:55:49;;;;;;;0.55;0.40;;;17.20;28.70;;;;;;6194573;28;20049;-73
2023/03/15 14:58:52;;;;;;;3.63;0.50;;;17.20;28.70;;;;;;6160149;28;20042;-75
2023/03/15 15:01:57;;;;;;;1.67;0.38;;;17.20;28.80;;;;;;6176277;28;20026;-73
2023/03/15 15:05:02;;;;;;;1.25;0.40;;;17.20;28.70;;;;;;6194298;28;20476;-74
2023/03/15 15:08:12;;;;;;;0.38;0.20;;;17.20;28.80;;;;;;6188511;28;20057;-74
2023/03/15 15:11:14;;;;;;;2.42;0.63;;;17.20;28.70;;;;;;6200959;28;20142;-74
2023/03/15 15:14:15;;;;;;;0.20;0.15;;;17.20;28.80;;;;;;6201490;28;20045;-76
2023/03/15 15:17:16;;;;;;;1.80;0.30;;;17.20;28.80;;;;;;6218090;28;20109;-73
2023/03/15 15:20:18;;;;;;;2.75;0.32;;;17.20;28.80;;;;;;6195343;28;20120;-74
2023/03/15 15:23:21;;;;;;;0.45;0.25;;;17.20;28.60;;;;;;6176271;28;20046;-75
2023/03/15 15:26:27;;;;;;;0.90;0.28;;;17.20;28.50;;;;;;6161106;28;20034;-75
2023/03/15 15:29:28;;;;;;;0.47;0.45;;;17.10;28.60;;;;;;6176542;28;20054;-75
2023/03/15 15:32:32;;;;;;;0.85;0.50;;;17.10;28.50;;;;;;6194386;28;20073;-74
2023/03/15 15:35:33;;;;;;;1.02;0.60;;;17.10;28.60;;;;;;6161248;28;20030;-74
2023/03/15 15:38:37;;;;;;;1.40;0.43;;;17.10;28.50;;;;;;6198579;28;20034;-75
2023/03/15 15:41:38;;;;;;;2.25;0.25;;;17.00;28.40;;;;;;6198499;28;20371;-74
2023/03/15 15:44:39;;;;;;;2.63;0.30;;;17.10;28.40;;;;;;6198196;28;20037;-73
2023/03/15 15:47:40;;;;;;;0.43;0.40;;;17.10;28.10;;;;;;6198109;28;20144;-74
2023/03/15 15:50:41;;;;;;;1.05;0.47;;;17.00;28.10;;;;;;6157007;28;20073;-73
2023/03/15 15:53:42;;;;;;;1.95;0.43;;;17.00;28.20;;;;;;6173080;28;20077;-73
2023/03/15 15:56:57;;;;;;;0.20;0.20;;;17.00;28.10;;;;;;6191720;28;20026;-75
2023/03/15 15:59:57;;;;;;;1.42;0.22;;;16.90;28.00;;;;;;6196883;28;20066;-74
2023/03/15 16:02:58;;;;;;;2.40;0.68;;;16.90;28.20;;;;;;6197089;28;20092;-73
2023/03/15 16:05:59;;;;;;;0.98;0.30;;;16.90;28.20;;;;;;6197120;28;20077;-73
2023/03/15 16:09:04;;;;;;;0.22;0.22;;;16.90;28.00;;;;;;6163303;28;20050;-74
2023/03/15 16:12:16;;;;;;;0.52;0.28;;;16.90;27.90;;;;;;6196923;28;20037;-74
2023/03/15 16:15:18;;;;;;;1.38;0.52;;;16.80;27.90;;;;;;6179702;28;20128;-75
2023/03/15 16:18:19;;;;;;;2.15;0.30;;;16.80;28.20;;;;;;6175863;28;20132;-75
2023/03/15 16:21:38;;;;;;;1.45;0.50;;;16.80;28.30;;;;;;6173614;28;20026;-75
2023/03/15 16:24:42;;;;;;;2.00;0.40;;;16.80;28.10;;;;;;6156577;28;20458;-74
2023/03/15 16:27:44;;;;;;;0.88;0.38;;;16.70;28.20;;;;;;6174727;28;20041;-74
2023/03/15 16:30:45;;;;;;;4.22;0.60;;;16.60;28.20;;;;;;6182486;28;20057;-74
2023/03/15 16:33:46;;;;;;;0.80;0.43;;;16.60;28.20;;;;;;6195982;28;20037;-74
2023/03/15 16:36:53;;;;;;;0.52;0.40;;;16.50;28.30;;;;;;6178322;28;20066;-74
2023/03/15 16:39:54;;;;;;;2.50;0.20;;;16.40;28.40;;;;;;6159853;28;20033;-74
2023/03/15 16:42:56;;;;;;;7.95;0.70;;;16.40;28.70;;;;;;6158645;28;20034;-73
2023/03/15 16:45:57;;;;;;;2.53;0.68;;;16.40;28.80;;;;;;6189250;28;20084;-75
2023/03/15 16:48:58;;;;;;;1.35;0.40;;;16.30;28.80;;;;;;6196178;28;20042;-74
2023/03/15 16:52:02;;;;;;;0.98;0.60;;;16.30;29.00;;;;;;6179447;28;20066;-75
2023/03/15 16:55:04;;;;;;;1.05;0.40;;;16.20;29.20;;;;;;6179330;28;20037;-74
2023/03/15 16:58:14;;;;;;;2.95;0.63;;;16.20;29.30;;;;;;6197016;28;20420;-76
2023/03/15 17:01:15;;;;;;;0.93;0.50;;;16.10;29.50;;;;;;6179452;28;20042;-74
2023/03/15 17:04:16;;;;;;;2.20;0.60;;;16.00;29.60;;;;;;6179173;28;20034;-75
2023/03/15 17:07:24;;;;;;;0.70;0.43;;;15.90;29.70;;;;;;6180099;28;20096;-73
2023/03/15 17:10:28;;;;;;;0.30;0.20;;;15.90;29.90;;;;;;6196862;28;20173;-75
2023/03/15 17:13:31;;;;;;;0.88;0.52;;;15.80;30.00;;;;;;6197554;28;20153;-74
2023/03/15 17:16:32;;;;;;;1.77;0.30;;;15.70;30.10;;;;;;6180170;28;20129;-74
2023/03/15 17:19:33;;;;;;;0.77;0.30;;;15.70;30.30;;;;;;6189382;28;20437;-73
2023/03/15 17:22:36;;;;;;;3.85;0.40;;;15.70;30.50;;;;;;6198155;28;20089;-73
2023/03/15 17:25:37;;;;;;;0.73;0.52;;;15.60;30.70;;;;;;6199865;28;20026;-73
2023/03/15 17:28:42;;;;;;;1.50;0.50;;;15.60;30.80;;;;;;6182464;28;20045;-71
2023/03/15 17:31:44;;;;;;;4.88;0.57;;;15.50;31.00;;;;;;6182581;28;20061;-73
2023/03/15 17:34:46;;;;;;;4.28;0.45;;;15.30;31.00;;;;;;6182300;28;20147;-74
2023/03/15 17:37:47;;;;;;;1.02;0.45;;;15.40;31.10;;;;;;6199532;28;20038;-74
2023/03/15 17:40:49;;;;;;;3.97;0.40;;;15.30;31.20;;;;;;6182139;28;20030;-73
2023/03/15 17:43:51;;;;;;;1.33;0.70;;;15.30;31.30;;;;;;6182489;28;20041;-72
2023/03/15 17:46:52;;;;;;;0.47;0.28;;;15.30;31.50;;;;;;6165742;28;20044;-74
2023/03/15 17:49:53;;;;;;;2.95;0.40;;;15.20;32.10;;;;;;6181329;28;20793;-74
2023/03/15 17:52:57;;;;;;;0.88;0.30;;;15.20;31.60;;;;;;6181527;28;20440;-74
2023/03/15 17:55:58;;;;;;;0.22;0.10;;;15.10;31.40;;;;;;6181465;28;20030;-73
2023/03/15 17:58:59;;;;;;;1.48;0.50;;;15.10;31.40;;;;;;6199224;28;20117;-74
2023/03/15 18:02:00;;;;;;;1.25;0.68;;;15.10;31.40;;;;;;6198266;28;20096;-73
2023/03/15 18:05:02;;;;;;;4.28;0.55;;;15.00;31.40;;;;;;6181045;28;20034;-74
2023/03/15 18:08:05;;;;;;;2.67;0.80;;;15.00;31.40;;;;;;6201303;28;20081;-73
2023/03/15 18:11:25;;;;;;;1.77;0.50;;;14.90;31.50;;;;;;6184450;28;20074;-73
2023/03/15 18:14:26;;;;;;;2.60;0.70;;;14.90;31.50;;;;;;6201208;28;20027;-73
2023/03/15 18:17:27;;;;;;;2.25;0.68;;;14.90;31.70;;;;;;6202566;28;20034;-72
2023/03/15 18:20:28;;;;;;;1.10;0.43;;;14.80;31.70;;;;;;6183264;28;20149;-73
2023/03/15 18:23:29;;;;;;;5.28;1.23;;;14.80;31.60;;;;;;6202009;28;20053;-74
2023/03/15 18:26:30;;;;;;;2.25;0.60;;;14.80;31.80;;;;;;6202638;28;20150;-74
2023/03/15 18:29:31;;;;;;;9.18;1.10;;;14.70;31.70;;;;;;6201751;28;20026;-74
2023/03/15 18:32:33;;;;;;;0.50;0.47;;;14.70;31.60;;;;;;6166717;28;20036;-72
2023/03/15 18:35:36;;;;;;;3.55;0.65;;;14.70;31.80;;;;;;6166389;28;20042;-75
2023/03/15 18:38:37;;;;;;;2.05;0.60;;;14.60;31.80;;;;;;6197383;28;20105;-74